Time;durP1;ratioP1;P1;durP2;ratioP2;P2;SDS_P1;SDS_P2;PMS_P1;PMS_P2;Temp;Humidity;BMP_temperature;BMP_pressure;BME280_temperature;BME280_humidity;BME280_pressure;Samples;Min_cycle;Max_cycle;Signal;HPM_P1;HPM_P2
2021/01/06 00:01:30;;;;;;;1.80;1.57;;;3.20;99.90;;;;;;20387147;29;20203;-65
2021/01/06 00:11:35;;;;;;;0.47;0.47;;;2.90;99.90;;;;;;20410876;29;20288;-67
2021/01/06 00:21:39;;;;;;;0.50;0.50;;;2.80;99.90;;;;;;20400013;29;20567;-66
2021/01/06 00:31:44;;;;;;;2.10;1.30;;;2.80;99.90;;;;;;20392851;29;20225;-66
2021/01/06 00:41:48;;;;;;;1.53;1.43;;;2.50;99.90;;;;;;20458374;29;20308;-66
2021/01/06 00:51:51;;;;;;;4.23;1.40;;;2.40;99.90;;;;;;20454307;28;20244;-67
2021/01/06 01:01:54;;;;;;;0.57;0.57;;;2.30;99.90;;;;;;20455035;29;20205;-66
2021/01/06 01:11:57;;;;;;;1.20;1.10;;;2.40;99.90;;;;;;20451957;28;20583;-66
2021/01/06 01:22:00;;;;;;;0.87;0.87;;;2.30;99.90;;;;;;20453086;29;20261;-65
2021/01/06 01:32:03;;;;;;;0.30;0.30;;;2.30;99.90;;;;;;20443016;28;20587;-66
2021/01/06 01:42:07;;;;;;;1.03;0.83;;;2.30;99.90;;;;;;20376255;29;20289;-67
2021/01/06 01:52:21;;;;;;;0.97;0.73;;;2.30;99.90;;;;;;20400740;29;20317;-67
2021/01/06 02:02:47;;;;;;;0.20;0.20;;;2.30;99.90;;;;;;20659309;23;20241;-75
2021/01/06 02:13:33;;;;;;;2.83;0.83;;;2.30;99.90;;;;;;20544327;28;20284;-75
2021/01/06 02:34:50;;;;;;;0.33;0.33;;;2.20;99.90;;;;;;20593953;23;20236;-75
2021/01/06 02:45:19;;;;;;;0.37;0.37;;;2.20;99.90;;;;;;20122467;23;20204;-74
2021/01/06 03:18:25;;;;;;;4.63;1.50;;;2.30;99.90;;;;;;20392129;23;20312;-75
2021/01/06 03:28:49;;;;;;;2.87;0.93;;;2.20;99.90;;;;;;20489723;28;20197;-75
2021/01/06 03:39:12;;;;;;;0.60;0.40;;;2.10;99.90;;;;;;20452349;23;20382;-73
2021/01/06 04:13:00;;;;;;;2.13;1.93;;;1.90;99.90;;;;;;20519034;28;20355;-73
2021/01/06 04:23:05;;;;;;;0.77;0.77;;;1.80;99.90;;;;;;20545105;28;20204;-72
2021/01/06 04:33:15;;;;;;;0.43;0.43;;;1.80;99.90;;;;;;20538716;23;20246;-77
2021/01/06 04:43:25;;;;;;;2.23;0.73;;;1.80;99.90;;;;;;20539513;28;20204;-74
2021/01/06 05:05:16;;;;;;;1.10;1.10;;;1.90;99.90;;;;;;20445290;29;20215;-72
2021/01/06 05:15:34;;;;;;;2.10;1.27;;;1.90;99.90;;;;;;20454148;29;20226;-72
2021/01/06 05:25:38;;;;;;;0.50;0.50;;;1.90;99.90;;;;;;20452189;28;20217;-73
2021/01/06 05:35:42;;;;;;;0.73;0.60;;;2.00;99.90;;;;;;20447821;29;20228;-72
2021/01/06 05:45:52;;;;;;;0.33;0.30;;;2.00;99.90;;;;;;20452539;28;20208;-72
2021/01/06 05:55:56;;;;;;;0.23;0.23;;;2.00;99.90;;;;;;20466337;28;20255;-73
2021/01/06 06:06:04;;;;;;;1.03;1.03;;;1.90;99.90;;;;;;20512691;28;20197;-73
2021/01/06 06:16:35;;;;;;;0.43;0.40;;;1.90;99.90;;;;;;20531872;28;20247;-72
2021/01/06 06:26:47;;;;;;;0.73;0.73;;;1.80;99.90;;;;;;20513314;28;20203;-71
2021/01/06 06:36:51;;;;;;;1.13;1.03;;;1.80;99.90;;;;;;20545036;28;20652;-72
2021/01/06 06:47:25;;;;;;;0.20;0.20;;;1.60;99.90;;;;;;20545348;28;20201;-75
2021/01/06 06:57:32;;;;;;;0.60;0.60;;;1.60;99.90;;;;;;20547631;28;20247;-75
2021/01/06 07:07:40;;;;;;;0.30;0.30;;;1.70;99.90;;;;;;20620800;28;20200;-74
2021/01/06 07:17:44;;;;;;;0.57;0.57;;;1.70;99.90;;;;;;20603788;28;20680;-74
2021/01/06 07:27:51;;;;;;;2.87;0.80;;;1.60;99.90;;;;;;20604690;28;20207;-78
2021/01/06 07:37:59;;;;;;;0.67;0.50;;;1.60;99.90;;;;;;20562190;23;20255;-78
2021/01/06 07:48:43;;;;;;;0.83;0.83;;;1.60;99.90;;;;;;20535945;28;20192;-78
2021/01/06 07:58:55;;;;;;;5.40;1.77;;;1.80;99.90;;;;;;20473052;28;20592;-76
2021/01/06 08:08:57;;;;;;;1.60;0.57;;;2.00;99.90;;;;;;20496927;28;20205;-78
2021/01/06 08:19:12;;;;;;;1.90;1.53;;;2.50;99.90;;;;;;20459027;29;20211;-78
2021/01/06 08:29:22;;;;;;;0.33;0.33;;;2.80;99.90;;;;;;20507731;23;20238;-73
2021/01/06 08:39:27;;;;;;;0.43;0.43;;;2.80;99.90;;;;;;20537751;28;20258;-74
2021/01/06 08:49:32;;;;;;;1.37;1.07;;;3.30;99.90;;;;;;20459878;28;20672;-76
2021/01/06 08:59:38;;;;;;;0.63;0.63;;;3.90;99.90;;;;;;20455925;28;20220;-74
2021/01/06 09:10:02;;;;;;;3.97;3.60;;;4.30;99.90;;;;;;20452646;29;20236;-75
2021/01/06 09:20:12;;;;;;;0.77;0.63;;;4.60;99.90;;;;;;20434523;29;20211;-74
2021/01/06 09:30:23;;;;;;;0.97;0.77;;;4.90;99.90;;;;;;20456591;28;20691;-74
2021/01/06 09:40:31;;;;;;;0.80;0.67;;;5.20;99.90;;;;;;20530085;28;20200;-74
2021/01/06 09:50:38;;;;;;;0.20;0.20;;;5.50;99.90;;;;;;20529988;28;20346;-73
2021/01/06 10:00:48;;;;;;;1.00;0.73;;;5.80;99.90;;;;;;20529335;28;20263;-73
2021/01/06 10:10:55;;;;;;;0.67;0.67;;;6.10;99.90;;;;;;20542897;28;20285;-73
2021/01/06 10:21:02;;;;;;;1.50;1.27;;;6.60;99.90;;;;;;20544908;28;20338;-73
2021/01/06 10:42:36;;;;;;;1.80;1.20;;;7.00;99.90;;;;;;20537790;28;20637;-74
2021/01/06 10:53:02;;;;;;;0.97;0.83;;;8.10;99.90;;;;;;20541880;28;20231;-73
2021/01/06 11:03:31;;;;;;;2.10;0.40;;;8.80;99.90;;;;;;20537941;28;20184;-73
2021/01/06 11:13:55;;;;;;;1.67;1.00;;;9.60;99.90;;;;;;20527043;28;20227;-74
2021/01/06 11:24:00;;;;;;;18.13;2.10;;;10.00;99.90;;;;;;20538494;28;20615;-74
2021/01/06 11:34:26;;;;;;;0.97;0.70;;;10.70;99.90;;;;;;20539540;28;20929;-74
2021/01/06 11:44:33;;;;;;;1.07;0.73;;;11.60;99.90;;;;;;20539830;28;20621;-73
2021/01/06 11:54:37;;;;;;;1.80;1.10;;;12.80;99.90;;;;;;20540108;28;20228;-75
2021/01/06 12:05:06;;;;;;;1.00;0.70;;;12.70;99.90;;;;;;20538404;28;20204;-74
2021/01/06 12:15:33;;;;;;;0.80;0.67;;;12.90;99.90;;;;;;20535002;28;20572;-77
2021/01/06 12:25:43;;;;;;;2.47;0.57;;;13.90;99.90;;;;;;20521640;28;20235;-75
2021/01/06 12:35:47;;;;;;;1.57;0.67;;;14.10;99.90;;;;;;20538340;28;20247;-78
2021/01/06 12:57:19;;;;;;;1.07;0.43;;;15.10;99.90;;;;;;20613688;28;20589;-78
2021/01/06 13:07:27;;;;;;;0.60;0.40;;;15.30;99.90;;;;;;20614273;28;20200;-78
2021/01/06 13:17:34;;;;;;;0.87;0.80;;;15.50;99.90;;;;;;20618704;28;20751;-77
2021/01/06 13:28:00;;;;;;;0.70;0.70;;;15.90;99.90;;;;;;20715461;23;20590;-75
2021/01/06 13:38:09;;;;;;;2.07;0.87;;;15.80;99.90;;;;;;20611867;28;20230;-76
2021/01/06 13:48:34;;;;;;;0.43;0.27;;;16.20;99.90;;;;;;20611313;28;20255;-77
2021/01/06 13:58:42;;;;;;;0.60;0.60;;;16.20;99.90;;;;;;20609139;28;20227;-78
2021/01/06 14:09:16;;;;;;;1.97;0.97;;;16.30;99.90;;;;;;20609222;28;20195;-76
2021/01/06 14:19:45;;;;;;;1.60;0.97;;;16.80;99.90;;;;;;20590054;28;20587;-77
2021/01/06 14:30:01;;;;;;;0.20;0.20;;;15.90;99.90;;;;;;20608452;28;20775;-76
2021/01/06 14:40:21;;;;;;;0.80;0.80;;;16.60;99.90;;;;;;20610751;28;20304;-75
2021/01/06 14:50:36;;;;;;;1.20;0.77;;;16.10;99.90;;;;;;20593222;28;20356;-77
2021/01/06 15:00:57;;;;;;;0.50;0.37;;;15.90;99.90;;;;;;20620813;28;20203;-76
2021/01/06 15:11:12;;;;;;;0.73;0.60;;;14.80;99.90;;;;;;20602202;28;20449;-76
2021/01/06 15:21:21;;;;;;;0.60;0.60;;;14.30;99.90;;;;;;20616522;28;20785;-77
2021/01/06 15:31:27;;;;;;;0.20;0.13;;;14.70;99.90;;;;;;20613497;28;20239;-75
2021/01/06 15:41:32;;;;;;;1.43;1.00;;;14.90;99.90;;;;;;20617131;28;20572;-75
2021/01/06 15:51:39;;;;;;;1.07;0.50;;;14.30;99.90;;;;;;20598842;28;20325;-72
2021/01/06 16:01:43;;;;;;;0.60;0.60;;;12.70;99.90;;;;;;20615993;28;20204;-73
2021/01/06 16:11:54;;;;;;;1.50;1.23;;;12.50;99.90;;;;;;20597878;28;20215;-75
2021/01/06 16:21:58;;;;;;;0.60;0.60;;;10.80;99.90;;;;;;20591574;28;20715;-74
2021/01/06 16:32:20;;;;;;;0.60;0.60;;;9.60;99.90;;;;;;20613289;28;20227;-76
2021/01/06 16:42:24;;;;;;;2.17;1.97;;;9.40;99.90;;;;;;20611220;28;20203;-72
2021/01/06 16:52:29;;;;;;;5.17;3.33;;;8.60;99.90;;;;;;20612946;28;21016;-74
2021/01/06 17:02:33;;;;;;;2.23;1.33;;;8.00;99.90;;;;;;20525182;28;20204;-74
2021/01/06 17:12:36;;;;;;;0.97;0.93;;;7.80;99.90;;;;;;20565042;28;20235;-74
2021/01/06 17:22:40;;;;;;;1.03;1.00;;;7.40;99.90;;;;;;20510575;28;20275;-75
2021/01/06 17:32:42;;;;;;;1.87;1.53;;;7.00;99.90;;;;;;20568460;28;20230;-74
2021/01/06 17:42:51;;;;;;;1.87;1.43;;;7.00;99.90;;;;;;20576587;28;20211;-75
2021/01/06 17:52:55;;;;;;;1.53;1.43;;;6.90;99.90;;;;;;20600445;28;20226;-74
2021/01/06 18:03:10;;;;;;;0.30;0.30;;;6.80;99.90;;;;;;20580106;28;20199;-76
2021/01/06 18:13:14;;;;;;;2.77;1.47;;;6.80;99.90;;;;;;20607458;28;20739;-82
2021/01/06 18:23:18;;;;;;;1.30;1.20;;;6.80;99.90;;;;;;20604654;28;20230;-80
2021/01/06 18:33:23;;;;;;;1.70;0.60;;;6.80;99.90;;;;;;20615182;28;21918;-79
2021/01/06 18:43:32;;;;;;;3.00;1.33;;;6.80;99.90;;;;;;20620590;28;20188;-76
2021/01/06 18:53:37;;;;;;;2.17;1.40;;;6.70;99.90;;;;;;20640152;23;20406;-81
2021/01/06 19:03:41;;;;;;;0.30;0.30;;;6.50;99.90;;;;;;20578804;28;20366;-79
2021/01/06 19:13:48;;;;;;;1.23;1.13;;;6.30;99.90;;;;;;20618154;28;20273;-80
2021/01/06 19:23:56;;;;;;;1.07;0.30;;;6.40;99.90;;;;;;20622562;28;20717;-75
2021/01/06 19:34:01;;;;;;;0.77;0.73;;;6.40;99.90;;;;;;20602471;28;20685;-81
2021/01/06 19:44:06;;;;;;;1.70;1.57;;;6.20;99.90;;;;;;20596585;28;20525;-80
2021/01/06 19:54:17;;;;;;;2.27;1.53;;;5.90;99.90;;;;;;20616473;28;20317;-81
2021/01/06 20:04:22;;;;;;;0.30;0.30;;;5.80;99.90;;;;;;20583570;28;20206;-81
2021/01/06 20:14:24;;;;;;;1.40;0.77;;;5.80;99.90;;;;;;20618257;28;20239;-81
2021/01/06 20:24:28;;;;;;;0.73;0.73;;;5.60;99.90;;;;;;20610730;28;20248;-79
2021/01/06 20:34:31;;;;;;;1.40;1.30;;;5.80;99.90;;;;;;20615943;28;20226;-82
2021/01/06 20:44:35;;;;;;;1.13;1.03;;;5.90;99.90;;;;;;20614552;28;20666;-79
2021/01/06 20:54:38;;;;;;;2.67;1.57;;;6.10;99.90;;;;;;20601812;28;20238;-78
2021/01/06 21:04:41;;;;;;;2.67;2.23;;;6.30;99.90;;;;;;20618054;28;20187;-81
2021/01/06 21:14:44;;;;;;;1.50;1.33;;;6.20;99.90;;;;;;20618951;28;20250;-82
2021/01/06 21:24:49;;;;;;;2.87;1.80;;;6.30;99.90;;;;;;20583877;28;20334;-81
2021/01/06 21:34:52;;;;;;;1.90;1.60;;;5.80;99.90;;;;;;20619169;23;20239;-81
2021/01/06 21:44:56;;;;;;;1.43;1.33;;;5.70;99.90;;;;;;20608589;28;20204;-78
2021/01/06 21:54:59;;;;;;;0.77;0.67;;;5.50;99.90;;;;;;20610015;28;20227;-77
2021/01/06 22:05:04;;;;;;;1.07;0.80;;;5.50;99.90;;;;;;20619169;28;20195;-76
2021/01/06 22:15:09;;;;;;;0.60;0.60;;;5.50;99.90;;;;;;20627804;28;20849;-76
2021/01/06 22:25:13;;;;;;;1.23;1.00;;;5.50;99.90;;;;;;20624965;28;20282;-75
2021/01/06 22:35:16;;;;;;;3.40;1.90;;;5.50;99.90;;;;;;20623818;28;20668;-76
2021/01/06 22:45:20;;;;;;;2.87;0.90;;;5.60;99.90;;;;;;20623982;28;20192;-76
2021/01/06 22:55:22;;;;;;;0.30;0.30;;;5.70;99.90;;;;;;20622930;28;20625;-75
2021/01/06 23:05:30;;;;;;;0.87;0.73;;;5.70;99.90;;;;;;20621272;28;20207;-74
2021/01/06 23:15:33;;;;;;;2.17;1.33;;;5.60;99.90;;;;;;20622460;28;20373;-74
2021/01/06 23:26:06;;;;;;;5.27;1.10;;;5.50;99.90;;;;;;20604312;28;20201;-77
2021/01/06 23:36:15;;;;;;;4.63;0.47;;;5.30;99.90;;;;;;20370112;29;20830;-78
2021/01/06 23:46:24;;;;;;;0.63;0.50;;;5.00;99.90;;;;;;20368376;29;20208;-77
2021/01/06 23:57:30;;;;;;;0.87;0.87;;;4.80;99.90;;;;;;20367010;29;20236;-77
